Time;durP1;ratioP1;P1;durP2;ratioP2;P2;SDS_P1;SDS_P2;PMS_P1;PMS_P2;Temp;Humidity;BMP_temperature;BMP_pressure;BME280_temperature;BME280_humidity;BME280_pressure;Samples;Min_cycle;Max_cycle;Signal;HPM_P1;HPM_P2
2021/10/05 00:02:07;;;;;;;6.03;3.72;;;;;;;13.33;nan;101874.88;4902395;29;20028;-48
2021/10/05 00:04:33;;;;;;;6.85;4.40;;;;;;;13.34;nan;101865.75;4898263;29;20036;-49
2021/10/05 00:06:58;;;;;;;5.05;3.28;;;;;;;13.35;nan;101870.09;4902664;29;20048;-48
2021/10/05 00:09:24;;;;;;;8.95;4.22;;;;;;;13.38;nan;101877.66;4900760;29;20325;-48
2021/10/05 00:11:49;;;;;;;5.95;3.58;;;;;;;13.35;nan;101867.38;4898600;29;20036;-48
2021/10/05 00:14:15;;;;;;;7.47;3.92;;;;;;;13.37;nan;101865.28;4897879;29;20028;-48
2021/10/05 00:16:40;;;;;;;8.75;4.22;;;;;;;13.34;nan;101860.38;4902003;29;20024;-48
2021/10/05 00:19:06;;;;;;;8.20;4.07;;;;;;;13.32;nan;101865.19;4899477;29;20031;-48
2021/10/05 00:21:31;;;;;;;8.13;3.85;;;;;;;13.34;nan;101856.88;4898239;29;20454;-49
2021/10/05 00:23:57;;;;;;;6.20;3.38;;;;;;;13.35;nan;101863.88;4901013;29;20038;-49
2021/10/05 00:26:22;;;;;;;6.50;3.75;;;;;;;13.32;nan;101856.28;4902854;29;20563;-48
2021/10/05 00:28:48;;;;;;;6.07;3.22;;;;;;;13.31;nan;101850.09;4899730;29;20036;-48
2021/10/05 00:31:13;;;;;;;11.00;3.90;;;;;;;13.28;nan;101850.53;4898990;29;20503;-49
2021/10/05 00:33:39;;;;;;;7.63;3.20;;;;;;;13.30;nan;101845.75;4898294;29;20403;-49
2021/10/05 00:36:05;;;;;;;7.68;3.55;;;;;;;13.32;nan;101846.34;4899937;29;20076;-48
2021/10/05 00:38:30;;;;;;;6.95;3.88;;;;;;;13.28;nan;101847.84;4897486;29;20387;-48
2021/10/05 00:40:55;;;;;;;7.53;3.70;;;;;;;13.28;nan;101845.16;4897528;29;20020;-48
2021/10/05 00:43:21;;;;;;;6.63;3.75;;;;;;;13.31;nan;101836.63;4901066;29;20063;-48
2021/10/05 00:45:46;;;;;;;11.20;3.38;;;;;;;13.30;nan;101826.94;4899668;29;20043;-49
2021/10/05 00:48:12;;;;;;;6.05;3.47;;;;;;;13.25;nan;101829.50;4904019;29;20036;-49
2021/10/05 00:50:37;;;;;;;8.52;3.67;;;;;;;13.26;nan;101831.94;4893925;29;20145;-47
2021/10/05 00:53:03;;;;;;;8.95;4.75;;;;;;;13.29;nan;101827.97;4901899;29;20029;-48
2021/10/05 00:55:29;;;;;;;6.45;3.80;;;;;;;13.28;nan;101819.09;4898256;29;20455;-50
2021/10/05 00:57:55;;;;;;;11.60;4.22;;;;;;;13.31;nan;101823.16;4902843;29;20032;-48
2021/10/05 01:00:21;;;;;;;9.77;3.75;;;;;;;13.28;nan;101812.88;4898213;29;20530;-48
2021/10/05 01:02:47;;;;;;;9.27;4.68;;;;;;;13.30;nan;101818.84;4896338;29;20198;-48
2021/10/05 01:05:13;;;;;;;11.30;4.50;;;;;;;13.32;nan;101805.97;4901334;29;20032;-51
2021/10/05 01:07:38;;;;;;;9.43;4.47;;;;;;;13.31;nan;101801.63;4901129;29;20507;-48
2021/10/05 01:10:05;;;;;;;9.48;3.85;;;;;;;13.32;nan;101810.53;4893084;29;20039;-47
2021/10/05 01:12:31;;;;;;;5.80;3.17;;;;;;;13.32;nan;101800.59;4897390;29;20488;-48
2021/10/05 01:14:57;;;;;;;10.23;4.07;;;;;;;13.31;nan;101796.25;4893754;29;20041;-48
2021/10/05 01:17:23;;;;;;;9.07;3.50;;;;;;;13.32;nan;101794.38;4898905;29;20088;-48
2021/10/05 01:19:48;;;;;;;7.43;3.25;;;;;;;13.27;nan;101789.69;4897241;29;20060;-48
2021/10/05 01:22:14;;;;;;;7.15;3.40;;;;;;;13.28;nan;101797.56;4898550;29;20087;-48
2021/10/05 01:24:40;;;;;;;10.07;4.20;;;;;;;13.31;nan;101796.25;4894600;29;20550;-48
2021/10/05 01:27:06;;;;;;;9.48;3.40;;;;;;;13.33;nan;101796.00;4901899;29;20099;-48
2021/10/05 01:29:33;;;;;;;8.77;3.45;;;;;;;13.34;nan;101793.09;4910040;29;20395;-48
2021/10/05 01:32:01;;;;;;;9.07;3.40;;;;;;;13.32;nan;101784.44;4902536;29;20351;-47
2021/10/05 01:34:27;;;;;;;6.63;3.25;;;;;;;13.33;nan;101788.75;4898044;29;20495;-48
2021/10/05 01:36:55;;;;;;;6.28;3.60;;;;;;;13.33;nan;101785.25;4897893;29;20036;-48
2021/10/05 01:39:21;;;;;;;9.15;3.75;;;;;;;13.32;nan;101781.75;4896586;29;20047;-48
2021/10/05 01:41:47;;;;;;;11.95;3.95;;;;;;;13.33;nan;101780.69;4898929;29;20329;-48
2021/10/05 01:44:13;;;;;;;6.13;3.28;;;;;;;13.34;nan;101771.53;4896146;29;20025;-47
2021/10/05 01:46:38;;;;;;;7.20;3.03;;;;;;;13.33;nan;101772.59;4898724;29;20092;-48
2021/10/05 01:49:04;;;;;;;7.82;3.00;;;;;;;13.32;nan;101767.47;4901444;29;20039;-48
2021/10/05 01:51:30;;;;;;;9.73;4.20;;;;;;;13.28;nan;101759.03;4900736;29;20511;-48
2021/10/05 01:53:56;;;;;;;6.32;3.88;;;;;;;13.25;nan;101754.94;4903204;29;20088;-48
2021/10/05 01:56:21;;;;;;;11.32;3.88;;;;;;;13.24;nan;101745.25;4897042;29;20036;-47
2021/10/05 01:58:47;;;;;;;10.43;3.40;;;;;;;13.24;nan;101747.13;4898387;29;20344;-47
2021/10/05 02:01:13;;;;;;;8.15;3.50;;;;;;;13.22;nan;101733.91;4900323;29;20028;-48
2021/10/05 02:03:39;;;;;;;8.82;4.13;;;;;;;13.19;nan;101745.16;4899915;29;20047;-48
2021/10/05 02:06:04;;;;;;;8.70;3.33;;;;;;;13.17;nan;101739.19;4901721;29;20064;-48
2021/10/05 02:08:29;;;;;;;8.73;4.10;;;;;;;13.19;nan;101733.59;4897078;29;20029;-48
2021/10/05 02:10:55;;;;;;;7.38;3.67;;;;;;;13.18;nan;101726.56;4899703;29;20052;-47
2021/10/05 02:13:20;;;;;;;8.43;3.92;;;;;;;13.18;nan;101732.78;4903341;29;20057;-48
2021/10/05 02:15:46;;;;;;;6.22;3.83;;;;;;;13.18;nan;101726.56;4895532;29;20032;-47
2021/10/05 02:18:11;;;;;;;8.93;3.92;;;;;;;13.17;nan;101727.59;4901423;29;20032;-48
2021/10/05 02:20:37;;;;;;;10.10;4.50;;;;;;;13.10;nan;101732.28;4894428;29;20444;-49
2021/10/05 02:23:02;;;;;;;9.52;3.92;;;;;;;13.13;nan;101734.53;4898590;29;20069;-47
2021/10/05 02:25:28;;;;;;;10.95;4.15;;;;;;;13.14;nan;101733.47;4897371;29;20116;-48
2021/10/05 02:27:53;;;;;;;8.93;4.05;;;;;;;13.14;nan;101736.97;4901405;29;20055;-48
2021/10/05 02:30:19;;;;;;;9.43;4.63;;;;;;;13.15;nan;101737.78;4899122;29;20020;-48
2021/10/05 02:32:45;;;;;;;7.82;4.45;;;;;;;13.15;nan;101730.53;4899886;29;20089;-48
2021/10/05 02:35:11;;;;;;;10.18;4.20;;;;;;;13.14;nan;101722.72;4901606;29;20058;-47
2021/10/05 02:37:36;;;;;;;9.30;4.57;;;;;;;13.15;nan;101735.09;4899049;29;20111;-49
2021/10/05 02:40:05;;;;;;;10.70;4.18;;;;;;;13.15;nan;101732.41;4896509;29;20102;-47
2021/10/05 02:42:31;;;;;;;8.77;3.67;;;;;;;13.17;nan;101730.28;4899374;29;20123;-48
2021/10/05 02:44:57;;;;;;;13.90;5.00;;;;;;;13.18;nan;101707.72;4898828;29;20340;-47
2021/10/05 02:47:23;;;;;;;10.45;4.68;;;;;;;13.18;nan;101710.44;4899080;29;20036;-48
2021/10/05 02:49:49;;;;;;;11.10;5.00;;;;;;;13.13;nan;101702.25;4900939;29;20035;-48
2021/10/05 02:52:17;;;;;;;10.77;4.07;;;;;;;13.11;nan;101705.16;4902451;29;20032;-48
2021/10/05 02:54:47;;;;;;;11.20;5.13;;;;;;;13.16;nan;101693.69;4893788;29;20264;-48
2021/10/05 02:57:18;;;;;;;9.70;4.55;;;;;;;13.14;nan;101698.50;4897291;29;20032;-48
2021/10/05 02:59:44;;;;;;;9.75;4.43;;;;;;;13.10;nan;101692.75;4899827;29;20519;-48
2021/10/05 03:02:10;;;;;;;10.10;5.35;;;;;;;13.14;nan;101693.09;4900368;29;20070;-48
2021/10/05 03:04:37;;;;;;;8.68;4.25;;;;;;;13.15;nan;101690.16;4899161;29;20530;-48
2021/10/05 03:07:03;;;;;;;8.88;4.45;;;;;;;13.13;nan;101692.28;4901373;29;20029;-51
2021/10/05 03:09:29;;;;;;;11.07;5.13;;;;;;;13.15;nan;101690.16;4899815;29;20036;-48
2021/10/05 03:11:54;;;;;;;10.82;4.53;;;;;;;13.18;nan;101691.59;4900089;29;20034;-49
2021/10/05 03:14:20;;;;;;;10.90;4.80;;;;;;;13.19;nan;101687.84;4902288;29;20415;-48
2021/10/05 03:16:46;;;;;;;10.30;5.20;;;;;;;13.21;nan;101683.03;4900015;29;20111;-49
2021/10/05 03:19:12;;;;;;;9.77;4.97;;;;;;;13.21;nan;101680.34;4900707;29;20046;-48
2021/10/05 03:21:38;;;;;;;10.30;4.55;;;;;;;13.22;nan;101669.31;4897602;29;20161;-50
2021/10/05 03:24:04;;;;;;;11.55;5.55;;;;;;;13.23;nan;101670.13;4901841;29;20642;-48
2021/10/05 03:26:29;;;;;;;11.98;4.85;;;;;;;13.19;nan;101664.44;4904481;29;20055;-48
2021/10/05 03:28:55;;;;;;;8.90;5.68;;;;;;;13.16;nan;101658.69;4901305;29;20028;-48
2021/10/05 03:31:20;;;;;;;9.32;4.90;;;;;;;13.20;nan;101652.59;4901186;29;20087;-48
2021/10/05 03:33:46;;;;;;;10.75;5.13;;;;;;;13.19;nan;101658.25;4893796;29;20024;-50
2021/10/05 03:36:13;;;;;;;12.15;5.60;;;;;;;13.16;nan;101647.94;4903385;29;20043;-49
2021/10/05 03:38:40;;;;;;;17.00;6.00;;;;;;;13.20;nan;101643.72;4896740;29;20036;-48
2021/10/05 03:41:06;;;;;;;10.68;5.07;;;;;;;13.14;nan;101642.78;4914567;29;20055;-48
2021/10/05 03:43:32;;;;;;;9.88;5.43;;;;;;;13.17;nan;101636.09;4901049;29;20036;-50
2021/10/05 03:45:58;;;;;;;10.57;5.82;;;;;;;13.17;nan;101630.72;4906933;29;20024;-48
2021/10/05 03:48:24;;;;;;;11.65;6.05;;;;;;;13.18;nan;101624.31;4898710;29;20245;-48
2021/10/05 03:50:49;;;;;;;8.32;5.95;;;;;;;13.18;nan;101613.56;4902311;29;20096;-49
2021/10/05 03:53:19;;;;;;;15.15;6.95;;;;;;;13.18;nan;101602.78;4898954;29;20127;-50
2021/10/05 03:55:47;;;;;;;13.07;6.95;;;;;;;13.18;nan;101608.97;4901534;29;20502;-48
2021/10/05 03:58:13;;;;;;;11.63;6.50;;;;;;;13.13;nan;101602.69;4906502;29;20032;-48
2021/10/05 04:00:38;;;;;;;14.77;7.15;;;;;;;13.15;nan;101593.31;4900320;29;20513;-50
2021/10/05 04:03:05;;;;;;;11.38;6.60;;;;;;;13.16;nan;101589.56;4896102;29;20044;-47
2021/10/05 04:05:30;;;;;;;13.43;7.10;;;;;;;13.15;nan;101587.09;4898606;29;20480;-51
2021/10/05 04:07:56;;;;;;;16.67;8.45;;;;;;;13.16;nan;101580.66;4899434;29;20043;-49
2021/10/05 04:10:21;;;;;;;14.77;8.45;;;;;;;13.13;nan;101579.28;4903983;29;20046;-49
2021/10/05 04:12:47;;;;;;;15.85;8.15;;;;;;;13.12;nan;101571.47;4903123;29;20115;-48
2021/10/05 04:15:12;;;;;;;15.77;8.13;;;;;;;13.13;nan;101573.91;4911261;29;20028;-47
2021/10/05 04:17:38;;;;;;;14.20;7.72;;;;;;;13.10;nan;101563.59;4898971;29;20129;-48
2021/10/05 04:20:04;;;;;;;13.82;8.63;;;;;;;13.14;nan;101561.25;4893893;29;20518;-49
2021/10/05 04:22:30;;;;;;;12.52;8.25;;;;;;;13.11;nan;101554.50;4897784;29;20556;-50
2021/10/05 04:24:55;;;;;;;15.65;8.68;;;;;;;13.05;nan;101554.66;4901029;29;20348;-48
2021/10/05 04:27:21;;;;;;;15.60;8.93;;;;;;;13.07;nan;101539.06;4899422;29;20968;-49
2021/10/05 04:29:46;;;;;;;14.40;8.80;;;;;;;13.05;nan;101544.69;4899301;29;20121;-47
2021/10/05 04:32:12;;;;;;;13.13;8.35;;;;;;;13.12;nan;101536.47;4898130;29;20476;-48
2021/10/05 04:34:38;;;;;;;18.73;9.20;;;;;;;13.09;nan;101528.88;4896315;29;20032;-48
2021/10/05 04:37:05;;;;;;;15.80;8.60;;;;;;;13.09;nan;101529.69;4898875;29;20428;-49
2021/10/05 04:39:31;;;;;;;16.23;9.20;;;;;;;13.04;nan;101526.94;4898374;29;20104;-49
2021/10/05 04:41:57;;;;;;;15.25;9.30;;;;;;;13.06;nan;101526.69;4899607;29;20399;-48
2021/10/05 04:44:22;;;;;;;17.45;9.35;;;;;;;13.08;nan;101524.56;4897916;29;20036;-47
2021/10/05 04:46:48;;;;;;;21.42;9.57;;;;;;;13.06;nan;101524.00;4895848;29;20419;-48
2021/10/05 04:49:14;;;;;;;16.13;9.35;;;;;;;13.05;nan;101519.66;4897385;29;20031;-50
2021/10/05 04:51:39;;;;;;;14.85;9.13;;;;;;;13.09;nan;101516.25;4902368;29;20385;-48
2021/10/05 04:54:05;;;;;;;18.67;8.27;;;;;;;13.08;nan;101520.00;4902164;29;20403;-48
2021/10/05 04:56:31;;;;;;;16.40;9.10;;;;;;;13.03;nan;101514.53;4896047;29;20032;-49
2021/10/05 04:58:56;;;;;;;12.18;8.35;;;;;;;13.07;nan;101512.16;4899000;29;20035;-48
2021/10/05 05:01:21;;;;;;;14.13;8.65;;;;;;;13.04;nan;101509.97;4896594;29;20115;-49
2021/10/05 05:03:47;;;;;;;12.45;8.40;;;;;;;13.05;nan;101501.66;4896353;29;20028;-49
2021/10/05 05:06:13;;;;;;;12.38;7.80;;;;;;;13.00;nan;101499.72;4903108;29;20425;-48
2021/10/05 05:08:38;;;;;;;12.48;7.90;;;;;;;13.06;nan;101497.09;4896073;29;20464;-48
2021/10/05 05:11:04;;;;;;;10.88;7.65;;;;;;;13.00;nan;101482.75;4899017;29;20483;-48
2021/10/05 05:13:30;;;;;;;10.60;7.22;;;;;;;13.02;nan;101489.50;4895630;29;20037;-49
2021/10/05 05:15:55;;;;;;;11.30;7.15;;;;;;;13.04;nan;101488.44;4896905;29;20091;-48
2021/10/05 05:18:23;;;;;;;11.23;7.05;;;;;;;12.99;nan;101486.50;4895801;29;20255;-48
2021/10/05 05:20:48;;;;;;;12.13;7.13;;;;;;;13.04;nan;101483.06;4902431;28;20028;-48
2021/10/05 05:23:15;;;;;;;9.95;6.35;;;;;;;12.99;nan;101478.44;4903737;29;20529;-48
2021/10/05 05:25:41;;;;;;;11.60;6.32;;;;;;;12.98;nan;101485.69;4898661;29;20084;-49
2021/10/05 05:28:08;;;;;;;12.93;5.97;;;;;;;12.99;nan;101483.81;4905665;29;20443;-48
2021/10/05 05:30:35;;;;;;;11.43;6.40;;;;;;;12.99;nan;101476.56;4899654;29;20044;-48
2021/10/05 05:33:01;;;;;;;11.48;6.18;;;;;;;13.04;nan;101465.06;4901132;29;20043;-48
2021/10/05 05:35:26;;;;;;;11.10;6.22;;;;;;;13.04;nan;101466.94;4899912;29;20032;-49
2021/10/05 05:37:52;;;;;;;10.55;6.30;;;;;;;13.01;nan;101458.28;4898043;29;20404;-47
2021/10/05 05:40:17;;;;;;;9.90;5.88;;;;;;;13.06;nan;101459.44;4890194;29;20495;-48
2021/10/05 05:42:43;;;;;;;12.95;6.30;;;;;;;13.00;nan;101450.47;4890914;29;20195;-47
2021/10/05 05:45:08;;;;;;;10.50;6.93;;;;;;;13.02;nan;101440.28;4891424;29;20059;-48
2021/10/05 05:47:34;;;;;;;9.30;6.85;;;;;;;13.01;nan;101442.16;4890911;29;20120;-48
2021/10/05 05:50:00;;;;;;;13.07;6.57;;;;;;;13.04;nan;101440.03;4890916;29;20024;-48
2021/10/05 05:52:25;;;;;;;10.57;6.65;;;;;;;13.04;nan;101440.03;4892272;29;20031;-49
2021/10/05 05:54:51;;;;;;;11.50;6.35;;;;;;;13.08;nan;101441.16;4892369;29;20040;-47
2021/10/05 05:57:17;;;;;;;11.48;6.88;;;;;;;13.05;nan;101437.09;4892036;29;20518;-47
2021/10/05 05:59:42;;;;;;;13.80;6.75;;;;;;;13.07;nan;101432.28;4892367;29;20080;-49
2021/10/05 06:02:08;;;;;;;10.50;6.63;;;;;;;13.11;nan;101422.66;4892121;29;20033;-48
2021/10/05 06:04:33;;;;;;;12.15;6.70;;;;;;;13.17;nan;101418.16;4892107;29;20033;-48
2021/10/05 06:06:59;;;;;;;11.68;6.18;;;;;;;13.17;nan;101412.78;4902330;29;20034;-49
2021/10/05 06:09:24;;;;;;;9.90;6.68;;;;;;;13.17;nan;101412.78;4891858;29;20061;-48
2021/10/05 06:11:52;;;;;;;10.77;6.95;;;;;;;13.17;nan;101399.31;4892822;29;20043;-48
2021/10/05 06:14:17;;;;;;;14.63;7.15;;;;;;;13.10;nan;101406.75;4892378;29;20546;-48
2021/10/05 06:16:42;;;;;;;9.35;7.30;;;;;;;13.16;nan;101411.16;4892232;29;20056;-48
2021/10/05 06:19:08;;;;;;;13.00;6.93;;;;;;;13.15;nan;101412.22;4896535;29;20028;-47
2021/10/05 06:21:33;;;;;;;9.13;7.10;;;;;;;13.15;nan;101412.22;4903213;29;20079;-48
2021/10/05 06:23:59;;;;;;;10.48;6.30;;;;;;;13.17;nan;101408.22;4895277;29;20056;-49
2021/10/05 06:26:24;;;;;;;9.70;6.95;;;;;;;13.18;nan;101409.88;4892821;29;20368;-47
2021/10/05 06:28:50;;;;;;;13.23;7.22;;;;;;;13.20;nan;101401.53;4891255;29;20029;-50
2021/10/05 06:31:15;;;;;;;10.40;6.85;;;;;;;13.25;nan;101398.91;4899726;29;20099;-48
2021/10/05 06:33:41;;;;;;;11.95;6.97;;;;;;;13.26;nan;101395.97;4896535;29;20028;-47
2021/10/05 06:36:07;;;;;;;11.73;6.72;;;;;;;13.28;nan;101376.88;4896214;29;20189;-48
2021/10/05 06:38:34;;;;;;;9.50;6.97;;;;;;;13.29;nan;101382.03;4896637;29;21448;-47
2021/10/05 06:40:59;;;;;;;10.40;7.32;;;;;;;13.34;nan;101386.66;4896107;29;20052;-48
2021/10/05 06:43:25;;;;;;;9.52;6.53;;;;;;;13.34;nan;101378.59;4897445;29;20067;-48
2021/10/05 06:45:50;;;;;;;10.85;6.90;;;;;;;13.35;nan;101382.91;4895790;29;20028;-48
2021/10/05 06:48:16;;;;;;;12.40;6.78;;;;;;;13.35;nan;101374.00;4895622;29;20029;-49
2021/10/05 06:50:43;;;;;;;10.93;7.05;;;;;;;13.40;nan;101371.38;4895995;29;20063;-47
2021/10/05 06:53:09;;;;;;;10.48;7.03;;;;;;;13.42;nan;101364.66;4897068;29;20033;-48
2021/10/05 06:55:34;;;;;;;12.80;7.75;;;;;;;13.39;nan;101356.28;4896740;29;20417;-47
2021/10/05 06:58:00;;;;;;;10.50;7.05;;;;;;;13.41;nan;101349.59;4895909;29;20468;-48
2021/10/05 07:00:26;;;;;;;12.23;6.50;;;;;;;13.38;nan;101336.63;4895977;29;20035;-47
2021/10/05 07:02:52;;;;;;;9.02;6.80;;;;;;;13.45;nan;101328.34;4895634;29;20067;-48
2021/10/05 07:05:20;;;;;;;10.93;6.28;;;;;;;13.48;nan;101325.19;4896064;29;20029;-47
2021/10/05 07:07:48;;;;;;;15.32;7.40;;;;;;;13.53;nan;101328.72;4910340;29;20039;-48
2021/10/05 07:10:16;;;;;;;13.82;7.45;;;;;;;13.60;nan;101328.53;4895941;29;20120;-48
2021/10/05 07:12:41;;;;;;;13.07;7.28;;;;;;;13.69;nan;101318.13;4896751;29;20064;-47
2021/10/05 07:15:08;;;;;;;11.88;7.38;;;;;;;13.72;nan;101317.59;4895726;29;20056;-49
2021/10/05 07:17:34;;;;;;;11.43;7.28;;;;;;;13.74;nan;101310.91;4895837;29;20507;-48
2021/10/05 07:20:01;;;;;;;12.65;7.70;;;;;;;13.79;nan;101308.25;4895455;29;20093;-47
2021/10/05 07:22:26;;;;;;;11.20;7.47;;;;;;;13.80;nan;101312.56;4895868;29;20091;-48
2021/10/05 07:24:52;;;;;;;16.30;8.30;;;;;;;13.78;nan;101306.63;4895661;29;20021;-47
2021/10/05 07:27:18;;;;;;;13.93;7.97;;;;;;;13.90;nan;101304.56;4895906;29;20597;-48
2021/10/05 07:29:44;;;;;;;14.63;8.90;;;;;;;13.98;nan;101289.00;4894061;29;20032;-48
2021/10/05 07:32:10;;;;;;;12.10;8.20;;;;;;;14.07;nan;101288.28;4895039;29;20032;-48
2021/10/05 07:34:35;;;;;;;15.93;7.60;;;;;;;14.14;nan;101283.47;4895006;29;20119;-47
2021/10/05 07:37:01;;;;;;;15.57;7.68;;;;;;;14.22;nan;101279.50;4895203;29;20160;-48
2021/10/05 07:39:26;;;;;;;13.25;8.02;;;;;;;14.34;nan;101276.59;4894524;29;20118;-49
2021/10/05 07:41:52;;;;;;;13.68;8.00;;;;;;;14.41;nan;101271.81;4894544;29;20483;-47
2021/10/05 07:44:18;;;;;;;12.10;8.30;;;;;;;14.47;nan;101273.47;4894615;29;20028;-49
2021/10/05 07:46:44;;;;;;;14.48;8.75;;;;;;;14.56;nan;101268.41;4895557;29;20111;-48
2021/10/05 07:49:09;;;;;;;11.30;6.88;;;;;;;14.64;nan;101255.25;4909260;29;20059;-49
2021/10/05 07:51:35;;;;;;;15.77;8.52;;;;;;;14.64;nan;101249.84;4894385;29;20024;-48
2021/10/05 07:54:02;;;;;;;20.42;9.52;;;;;;;14.74;nan;101254.47;4894648;29;20036;-48
2021/10/05 07:56:27;;;;;;;13.65;8.55;;;;;;;14.75;nan;101248.00;4894948;29;20039;-47
2021/10/05 07:58:53;;;;;;;16.30;9.00;;;;;;;14.76;nan;101236.97;4894067;29;20032;-48
2021/10/05 08:01:19;;;;;;;15.85;8.68;;;;;;;14.77;nan;101243.16;4893942;29;20535;-48
2021/10/05 08:03:44;;;;;;;16.17;8.23;;;;;;;14.82;nan;101237.78;4894731;29;20041;-48
2021/10/05 08:06:09;;;;;;;16.13;9.43;;;;;;;14.81;nan;101231.56;4894179;29;20080;-48
2021/10/05 08:08:35;;;;;;;16.65;8.57;;;;;;;14.82;nan;101219.72;4894545;29;20206;-49
2021/10/05 08:11:00;;;;;;;16.88;9.80;;;;;;;14.84;nan;101215.94;4894444;29;20054;-48
2021/10/05 08:13:27;;;;;;;18.83;10.45;;;;;;;14.81;nan;101210.00;4894204;29;20036;-47
2021/10/05 08:15:52;;;;;;;14.02;8.90;;;;;;;14.74;nan;101204.03;4895115;29;20072;-48
2021/10/05 08:18:18;;;;;;;15.93;10.10;;;;;;;14.71;nan;101207.25;4893632;29;20119;-48
2021/10/05 08:20:45;;;;;;;18.38;10.45;;;;;;;14.68;nan;101194.28;4894593;29;20115;-48
2021/10/05 08:23:10;;;;;;;18.02;10.38;;;;;;;14.66;nan;101198.34;4894503;29;20036;-48
2021/10/05 08:25:36;;;;;;;18.02;10.55;;;;;;;14.63;nan;101188.09;4894735;29;20613;-48
2021/10/05 08:28:02;;;;;;;17.50;10.75;;;;;;;14.71;nan;101179.47;4893367;29;20578;-48
2021/10/05 08:30:28;;;;;;;15.75;10.50;;;;;;;14.72;nan;101187.31;4893274;29;20024;-48
2021/10/05 08:32:55;;;;;;;19.67;10.90;;;;;;;14.75;nan;101184.09;4894388;29;20116;-48
2021/10/05 08:35:20;;;;;;;21.73;12.65;;;;;;;14.71;nan;101174.06;4894400;29;20444;-47
2021/10/05 08:37:46;;;;;;;19.60;12.20;;;;;;;14.76;nan;101164.13;4894557;29;20063;-48
2021/10/05 08:40:12;;;;;;;21.23;12.18;;;;;;;14.76;nan;101164.13;4908633;29;20460;-48
2021/10/05 08:42:39;;;;;;;18.80;12.63;;;;;;;14.75;nan;101164.41;4894200;29;20035;-48
2021/10/05 08:45:06;;;;;;;20.25;11.85;;;;;;;14.77;nan;101154.97;4894188;29;20432;-48
2021/10/05 08:47:33;;;;;;;20.15;13.45;;;;;;;14.81;nan;101155.22;4893599;29;20032;-48
2021/10/05 08:49:59;;;;;;;20.35;12.45;;;;;;;14.82;nan;101149.56;4893863;29;20406;-48
2021/10/05 08:52:25;;;;;;;20.13;11.82;;;;;;;14.85;nan;101150.09;4894135;29;20040;-48
2021/10/05 08:54:51;;;;;;;19.77;11.93;;;;;;;14.88;nan;101139.59;4894859;29;20029;-48
2021/10/05 08:57:16;;;;;;;18.42;11.48;;;;;;;14.88;nan;101136.88;4894157;29;20507;-48
2021/10/05 08:59:42;;;;;;;19.70;11.90;;;;;;;14.95;nan;101134.75;4898536;29;20036;-48
2021/10/05 09:02:18;;;;;;;20.65;12.25;;;;;;;14.97;nan;101121.81;4893266;29;20028;-48
2021/10/05 09:04:46;;;;;;;20.10;11.38;;;;;;;15.08;nan;101114.53;4898514;29;20033;-47
2021/10/05 09:07:23;;;;;;;21.45;12.93;;;;;;;15.18;nan;101113.72;4907510;29;20448;-48
2021/10/05 09:10:02;;;;;;;24.90;13.93;;;;;;;15.24;nan;101102.66;4893532;29;20591;-48
2021/10/05 09:12:30;;;;;;;23.77;14.95;;;;;;;15.38;nan;101095.63;4893660;29;20032;-47
2021/10/05 09:14:57;;;;;;;20.45;12.93;;;;;;;15.54;nan;101095.63;4893722;29;20028;-48
2021/10/05 09:17:25;;;;;;;23.98;13.90;;;;;;;15.68;nan;101081.31;4893245;29;20036;-48
2021/10/05 09:19:52;;;;;;;22.58;14.77;;;;;;;15.70;nan;101073.75;4893490;29;20130;-49
2021/10/05 09:22:22;;;;;;;24.63;14.70;;;;;;;15.71;nan;101066.44;4893199;29;20032;-48
2021/10/05 09:24:50;;;;;;;22.77;15.27;;;;;;;15.66;nan;101053.78;4894339;29;20368;-48
2021/10/05 09:27:16;;;;;;;27.30;16.13;;;;;;;15.65;nan;101054.03;4893074;29;20273;-47
2021/10/05 09:29:42;;;;;;;27.10;16.13;;;;;;;15.55;nan;101038.63;4891770;29;20035;-48
2021/10/05 09:32:12;;;;;;;26.17;16.67;;;;;;;15.59;nan;101034.31;4892887;29;20032;-47
2021/10/05 09:34:46;;;;;;;30.25;18.27;;;;;;;15.61;nan;101028.66;4893151;29;20075;-48
2021/10/05 09:37:18;;;;;;;27.70;17.92;;;;;;;15.76;nan;101022.38;4892529;29;20032;-49
2021/10/05 09:39:57;;;;;;;32.13;19.00;;;;;;;15.85;nan;101009.94;4891218;29;20060;-49
2021/10/05 09:42:32;;;;;;;31.10;18.95;;;;;;;16.09;nan;101004.69;4892944;29;20499;-48
2021/10/05 09:45:04;;;;;;;31.60;18.30;;;;;;;16.20;nan;101007.06;4892681;29;20041;-47
2021/10/05 09:47:48;;;;;;;26.85;17.58;;;;;;;16.31;nan;101008.59;4892256;29;20526;-48
2021/10/05 09:50:29;;;;;;;29.80;18.27;;;;;;;16.48;nan;100996.59;4892796;29;20047;-47
2021/10/05 09:52:58;;;;;;;31.25;19.05;;;;;;;16.66;nan;100995.13;4896753;29;20586;-48
2021/10/05 09:55:26;;;;;;;27.38;18.27;;;;;;;16.76;nan;100986.97;4892743;29;20134;-48
2021/10/05 09:57:54;;;;;;;30.90;19.67;;;;;;;16.86;nan;100966.03;4893315;29;20063;-49
2021/10/05 10:00:22;;;;;;;28.83;18.10;;;;;;;16.94;nan;100956.50;4891099;29;20036;-48
2021/10/05 10:02:48;;;;;;;33.53;20.13;;;;;;;17.02;nan;100952.34;4897324;29;20039;-47
2021/10/05 10:05:16;;;;;;;30.65;20.30;;;;;;;17.08;nan;100956.66;4893336;29;20560;-48
2021/10/05 10:07:45;;;;;;;30.58;19.70;;;;;;;17.09;nan;100950.94;4897238;29;20201;-48
2021/10/05 10:10:18;;;;;;;30.50;19.95;;;;;;;17.34;nan;100949.03;4879783;29;20032;-49
2021/10/05 10:12:50;;;;;;;29.27;19.42;;;;;;;17.55;nan;100945.00;4896129;29;20369;-49
2021/10/05 10:15:17;;;;;;;31.90;19.70;;;;;;;17.66;nan;100945.69;4895858;29;20444;-48
2021/10/05 10:17:42;;;;;;;32.95;20.80;;;;;;;17.70;nan;100950.25;4896610;29;20039;-48
2021/10/05 10:20:21;;;;;;;33.65;20.80;;;;;;;17.64;nan;100935.16;4895394;29;20028;-48
2021/10/05 10:22:46;;;;;;;34.85;21.55;;;;;;;17.72;nan;100929.09;4900538;29;20266;-48
2021/10/05 10:25:38;;;;;;;31.30;20.95;;;;;;;17.69;nan;100912.63;4896419;29;20036;-48
2021/10/05 10:28:13;;;;;;;37.58;21.63;;;;;;;17.90;nan;100902.28;4895712;29;20100;-48
2021/10/05 10:30:51;;;;;;;34.50;21.40;;;;;;;18.12;nan;100899.78;4894839;29;20036;-48
2021/10/05 10:33:19;;;;;;;34.63;21.90;;;;;;;18.33;nan;100892.97;4895045;29;20403;-49
2021/10/05 10:35:49;;;;;;;35.63;23.23;;;;;;;18.45;nan;100884.34;4896334;29;20043;-48
2021/10/05 10:38:29;;;;;;;34.63;22.45;;;;;;;18.67;nan;100883.72;4892778;29;20160;-48
2021/10/05 10:40:56;;;;;;;34.72;21.98;;;;;;;18.74;nan;100896.91;4896170;29;20052;-48
2021/10/05 10:43:24;;;;;;;31.95;21.55;;;;;;;18.92;nan;100891.41;4896161;29;20023;-48
2021/10/05 10:45:59;;;;;;;33.97;21.13;;;;;;;18.99;nan;100886.38;4895411;29;20272;-49
2021/10/05 10:48:36;;;;;;;33.17;22.42;;;;;;;19.06;nan;100886.00;4895803;29;20034;-48
2021/10/05 10:51:27;;;;;;;39.63;24.13;;;;;;;19.17;nan;100892.81;4907980;29;20108;-48
2021/10/05 10:53:54;;;;;;;33.83;22.90;;;;;;;19.36;nan;100878.34;4893998;29;20329;-48
2021/10/05 10:56:32;;;;;;;35.40;22.45;;;;;;;19.45;nan;100874.59;4892969;29;20032;-48
2021/10/05 10:59:00;;;;;;;37.42;22.60;;;;;;;19.55;nan;100876.31;4893573;29;20036;-48
2021/10/05 11:01:40;;;;;;;33.83;22.10;;;;;;;19.63;nan;100872.09;4889082;29;20040;-49
2021/10/05 11:04:08;;;;;;;33.55;23.20;;;;;;;19.86;nan;100873.72;4896225;29;20107;-48
2021/10/05 11:06:33;;;;;;;34.15;22.98;;;;;;;20.34;nan;100868.50;4895561;29;20146;-48
2021/10/05 11:09:02;;;;;;;34.08;22.02;;;;;;;20.97;nan;100850.25;4893875;29;20562;-48
2021/10/05 11:11:34;;;;;;;32.03;22.05;;;;;;;21.26;nan;100855.19;4894034;29;20028;-48
2021/10/05 11:14:03;;;;;;;32.22;21.17;;;;;;;21.07;nan;100847.25;4893664;29;20932;-48
2021/10/05 11:16:30;;;;;;;33.38;22.55;;;;;;;20.84;nan;100843.03;4892129;29;20159;-49
2021/10/05 11:19:14;;;;;;;33.42;22.65;;;;;;;20.66;nan;100853.03;4893367;29;20031;-48
2021/10/05 11:21:42;;;;;;;35.05;22.98;;;;;;;20.50;nan;100841.75;4893672;29;20032;-49
2021/10/05 11:24:08;;;;;;;33.78;22.88;;;;;;;20.43;nan;100825.84;4908582;29;20021;-49
2021/10/05 11:26:40;;;;;;;35.33;23.10;;;;;;;20.42;nan;100823.44;4893889;29;20028;-48
2021/10/05 11:29:07;;;;;;;31.80;21.63;;;;;;;20.42;nan;100828.88;4891404;29;20035;-48
2021/10/05 11:31:46;;;;;;;34.95;22.75;;;;;;;20.56;nan;100823.34;4893629;29;20032;-48
2021/10/05 11:34:13;;;;;;;31.02;21.45;;;;;;;20.68;nan;100815.41;4894413;29;20040;-48